Aérodrome :
LOGIN :

S'inscrire | Disclaimer

   EN    FR    IT 

 










Légende :    VFR   VFR Marginal   IFR   IFR Intensif   IFR Très Intensif
Visi : 
Plafond : 
>= 8 km
>= 3000ft
5 à 8 km
1000 à 3000 ft
1500m à 5 km
500 à 1000 ft
800 à 1500m
200 à 500 ft
< 800m
< 200 ft
Symboles :   Orages  Brouillard  Fortes neiges  Fortes précipitations  Vent > 20 kt
SIGMETs :   Divers  Orages  Givrage  Turbulence  Onde Orograph.  Cendres Volcan.







- Altitude de l'aérodrome : 1411 ft
- Code IATA : GVA


LSGG - Genève Cointrin

DERNIER METAR :
  • 202020Z 08003KT CAVOK 16/09 Q1021 NOSIG

METARs EXPIRÉS :
  • 201950Z 24002KT CAVOK 17/08 Q1021 NOSIG
  • 201920Z 13001KT CAVOK 18/07 Q1021 NOSIG
  • 201850Z 32003KT CAVOK 19/06 Q1021 NOSIG
  • 201820Z 00000KT CAVOK 22/05 Q1021 NOSIG
  • 201750Z 02002KT 9999 FEW060 25/03 Q1021 NOSIG

TAF TAF LSGG
Valide du 20 à 18h jusqu'au 22 à 00h UTC


201725Z 2018/2124 VRB03KT 9999 FEW060 TX27/2115Z TN09/2105Z
BECMG 2018/2020 CAVOK
BECMG 2111/2113 04007KT 9999 FEW060
BECMG 2117/2119 VRB03KT CAVOK
ATIS : +41 22 417 40 81
Pas de NOTAMs connus pour ce terrain.



MET'MAP, la Météo Aéronautique d'un coup d'oeil ! - Copyright ORBIFLY Décembre 2007 - Disclaimer

ORBIFLY MET'MAP TEAM :

Programmation & Développement : Alexandra Zaïnal
Conception & Développement : Baudouin d'Aumeries
Co-Programmation & Développement : Marc-Olivier Méhu
Soutien technique & logistique : Manuel Goepfert

Contact : metmap@orbifly.com




SOURCES & CREDITS :

   NOAA